Kennedy Grace — WDG9120 — position and weather

sailwx.info

Track history (hours):
 
Tides and Currents Weather Stations Pressure Air Temp Water Temp Dewpoint Dewpoint Depression Visibility Wind Speed Wind Dir Waves Ship Positions

Kennedy Grace

Owner: Settoon Towing, LLC, Houma, LA. More information available from US FCC via Universal Licensing System and Coast Guard Vessel Documentation Center.

Last reported at 2017-Sep-21 20:40 UTC. Time now 2017-Sep-22 11:37 UTC.
Position N 29°47' W 095°06'.

; draft 3 m.

Type: Towing. MMSI: 367584530.

Date/timePositionNaut miles runAvg speedWind from/ knotsBaromVisibWave heightAir tempDewpointWater temp
2017-Sep-21 20:40N 29°47' W 095°06'0 0.0
2017-Sep-21 20:28N 29°47' W 095°06'0 0.0
2017-Sep-21 15:48N 29°47' W 095°06'0 0.0
2017-Sep-21 05:31N 29°47' W 095°06'1 4.0
2017-Sep-21 05:18N 29°46' W 095°06'2 5.5
2017-Sep-21 04:55N 29°45' W 095°04'2 5.8
2017-Sep-21 04:30N 29°44' W 095°02'3 5.8
2017-Sep-21 04:00N 29°42' W 094°59'3 6.2
2017-Sep-21 03:30N 29°39' W 094°58'3 6.6
2017-Sep-21 03:00N 29°36' W 094°57'3 6.8
2017-Sep-21 02:30N 29°33' W 094°54'4 0.7
2017-Sep-20 21:02N 29°30' W 094°52'0 5.1
2017-Sep-20 20:58N 29°30' W 094°52'2 5.0
2017-Sep-20 20:30N 29°32' W 094°54'2 4.9
2017-Sep-20 20:00N 29°34' W 094°55'3 5.0
2017-Sep-20 19:30N 29°36' W 094°57'3 5.1
2017-Sep-20 18:58N 29°39' W 094°58'3 5.6
2017-Sep-20 18:29N 29°41' W 094°59'8 0.4
2017-Sep-19 22:42N 29°46' W 095°06'1 5.9
2017-Sep-19 22:30N 29°46' W 095°05'1 0.3
2017-Sep-19 20:36N 29°46' W 095°05'2 5.5
2017-Sep-19 20:19N 29°44' W 095°07'0 0.1
2017-Sep-19 13:27N 29°44' W 095°07'2 4.1
2017-Sep-19 12:55N 29°46' W 095°05'2 4.8
2017-Sep-19 12:30N 29°44' W 095°03'3 0.3
2017-Sep-19 02:36N 29°46' W 095°06'1 4.0
2017-Sep-19 02:24N 29°46' W 095°05'2 5.5
2017-Sep-19 01:58N 29°44' W 095°03'1 0.1
2017-Sep-18 12:52N 29°44' W 095°03'0 0.0
2017-Sep-17 13:30N 29°44' W 095°02'0 0.0
2017-Sep-17 12:06N 29°44' W 095°02'0 0.0
2017-Sep-17 11:57N 29°44' W 095°02'0 0.0
2017-Sep-17 11:25N 29°44' W 095°02'0 0.0
2017-Sep-17 10:48N 29°44' W 095°02'0 0.0
2017-Sep-17 10:29N 29°44' W 095°02'0 0.0
2017-Sep-17 09:39N 29°44' W 095°02'0 0.0
2017-Sep-17 09:19N 29°44' W 095°02'0 0.0
2017-Sep-17 08:02N 29°44' W 095°02'0 0.0
2017-Sep-17 07:51N 29°44' W 095°02'0 0.0
2017-Sep-17 03:38N 29°44' W 095°02'0 0.0
2017-Sep-17 01:26N 29°44' W 095°02'4 0.2
2017-Sep-15 23:22N 29°47' W 095°06'22 0.9
2017-Sep-15 00:29N 29°29' W 094°52'3 6.3
2017-Sep-15 00:00N 29°32' W 094°53'3 5.9
2017-Sep-14 23:30N 29°34' W 094°55'3 5.8
2017-Sep-14 22:59N 29°37' W 094°57'3 5.8
2017-Sep-14 22:29N 29°39' W 094°58'2 4.0
2017-Sep-14 22:00N 29°41' W 094°59'0 0.1
2017-Sep-14 21:30N 29°41' W 094°59'0 0.0
2017-Sep-14 20:19N 29°41' W 094°59'0 0.1
2017-Sep-14 20:00N 29°41' W 094°59'0 0.2
2017-Sep-14 19:30N 29°41' W 094°60'0 0.0
2017-Sep-14 19:00N 29°41' W 094°60'0 0.0
2017-Sep-14 18:27N 29°41' W 094°60'0 0.0
2017-Sep-14 17:59N 29°41' W 094°60'0 0.0
2017-Sep-14 17:30N 29°41' W 094°60'0 0.0
2017-Sep-14 16:55N 29°41' W 094°60'0 0.0
2017-Sep-14 16:28N 29°41' W 094°60'0 0.0
2017-Sep-14 15:58N 29°41' W 094°60'0 0.2
2017-Sep-14 15:28N 29°41' W 094°59'0 0.0
2017-Sep-14 14:56N 29°41' W 094°59'0 0.0
2017-Sep-14 14:27N 29°41' W 094°59'0 0.1
2017-Sep-14 14:00N 29°41' W 094°59'8 0.4
2017-Sep-13 15:54N 29°46' W 095°06'4 3.0
2017-Sep-13 14:40N 29°45' W 095°10'4 0.5
2017-Sep-13 06:33N 29°47' W 095°06'0 0.0
2017-Sep-13 06:29N 29°47' W 095°06'0 0.1
2017-Sep-13 02:29N 29°47' W 095°06'1 2.8
2017-Sep-13 02:00N 29°46' W 095°05'3 6.7
2017-Sep-13 01:30N 29°44' W 095°02'3 6.6
2017-Sep-13 01:00N 29°41' W 094°59'4 7.2
2017-Sep-13 00:30N 29°38' W 094°58'4 7.7
2017-Sep-13 00:00N 29°35' W 094°56'7 0.4
2017-Sep-12 07:47N 29°29' W 094°52'2 7.9
2017-Sep-12 07:30N 29°31' W 094°53'4 7.7
2017-Sep-12 07:00N 29°34' W 094°55'4 7.8
2017-Sep-12 06:30N 29°38' W 094°58'4 7.7
2017-Sep-12 06:00N 29°41' W 094°59'7 5.8
2017-Sep-12 04:44N 29°47' W 095°04'1 1.9
2017-Sep-12 04:28N 29°47' W 095°05'  
Track history (hours):
 
Tides and Currents Weather Stations Pressure Air Temp Water Temp Dewpoint Dewpoint Depression Visibility Wind Speed Wind Dir Waves Ship Positions

Kennedy Grace

Owner: Settoon Towing, LLC, Houma, LA. More information available from US FCC via Universal Licensing System and Coast Guard Vessel Documentation Center.

Last reported at 2017-Sep-21 20:40 UTC. Time now 2017-Sep-22 11:37 UTC.
Position N 29°47' W 095°06'.

; draft 3 m.

Type: Towing. MMSI: 367584530.

Date/timePositionNaut miles runAvg speedWind from/ knotsBaromVisibWave heightAir tempDewpointWater temp
2017-Sep-21 20:40N 29°47' W 095°06'0 0.0
2017-Sep-21 20:28N 29°47' W 095°06'0 0.0
2017-Sep-21 15:48N 29°47' W 095°06'0 0.0
2017-Sep-21 05:31N 29°47' W 095°06'1 4.0
2017-Sep-21 05:18N 29°46' W 095°06'2 5.5
2017-Sep-21 04:55N 29°45' W 095°04'2 5.8
2017-Sep-21 04:30N 29°44' W 095°02'3 5.8
2017-Sep-21 04:00N 29°42' W 094°59'3 6.2
2017-Sep-21 03:30N 29°39' W 094°58'3 6.6
2017-Sep-21 03:00N 29°36' W 094°57'3 6.8
2017-Sep-21 02:30N 29°33' W 094°54'4 0.7
2017-Sep-20 21:02N 29°30' W 094°52'0 5.1
2017-Sep-20 20:58N 29°30' W 094°52'2 5.0
2017-Sep-20 20:30N 29°32' W 094°54'2 4.9
2017-Sep-20 20:00N 29°34' W 094°55'3 5.0
2017-Sep-20 19:30N 29°36' W 094°57'3 5.1
2017-Sep-20 18:58N 29°39' W 094°58'3 5.6
2017-Sep-20 18:29N 29°41' W 094°59'8 0.4
2017-Sep-19 22:42N 29°46' W 095°06'1 5.9
2017-Sep-19 22:30N 29°46' W 095°05'1 0.3
2017-Sep-19 20:36N 29°46' W 095°05'2 5.5
2017-Sep-19 20:19N 29°44' W 095°07'0 0.1
2017-Sep-19 13:27N 29°44' W 095°07'2 4.1
2017-Sep-19 12:55N 29°46' W 095°05'2 4.8
2017-Sep-19 12:30N 29°44' W 095°03'3 0.3
2017-Sep-19 02:36N 29°46' W 095°06'1 4.0
2017-Sep-19 02:24N 29°46' W 095°05'2 5.5
2017-Sep-19 01:58N 29°44' W 095°03'1 0.1
2017-Sep-18 12:52N 29°44' W 095°03'0 0.0
2017-Sep-17 13:30N 29°44' W 095°02'0 0.0
2017-Sep-17 12:06N 29°44' W 095°02'0 0.0
2017-Sep-17 11:57N 29°44' W 095°02'0 0.0
2017-Sep-17 11:25N 29°44' W 095°02'0 0.0
2017-Sep-17 10:48N 29°44' W 095°02'0 0.0
2017-Sep-17 10:29N 29°44' W 095°02'0 0.0
2017-Sep-17 09:39N 29°44' W 095°02'0 0.0
2017-Sep-17 09:19N 29°44' W 095°02'0 0.0
2017-Sep-17 08:02N 29°44' W 095°02'0 0.0
2017-Sep-17 07:51N 29°44' W 095°02'0 0.0
2017-Sep-17 03:38N 29°44' W 095°02'0 0.0
2017-Sep-17 01:26N 29°44' W 095°02'4 0.2
2017-Sep-15 23:22N 29°47' W 095°06'22 0.9
2017-Sep-15 00:29N 29°29' W 094°52'3 6.3
2017-Sep-15 00:00N 29°32' W 094°53'3 5.9
2017-Sep-14 23:30N 29°34' W 094°55'3 5.8
2017-Sep-14 22:59N 29°37' W 094°57'3 5.8
2017-Sep-14 22:29N 29°39' W 094°58'2 4.0
2017-Sep-14 22:00N 29°41' W 094°59'0 0.1
2017-Sep-14 21:30N 29°41' W 094°59'0 0.0
2017-Sep-14 20:19N 29°41' W 094°59'0 0.1
2017-Sep-14 20:00N 29°41' W 094°59'0 0.2
2017-Sep-14 19:30N 29°41' W 094°60'0 0.0
2017-Sep-14 19:00N 29°41' W 094°60'0 0.0
2017-Sep-14 18:27N 29°41' W 094°60'0 0.0
2017-Sep-14 17:59N 29°41' W 094°60'0 0.0
2017-Sep-14 17:30N 29°41' W 094°60'0 0.0
2017-Sep-14 16:55N 29°41' W 094°60'0 0.0
2017-Sep-14 16:28N 29°41' W 094°60'0 0.0
2017-Sep-14 15:58N 29°41' W 094°60'0 0.2
2017-Sep-14 15:28N 29°41' W 094°59'0 0.0
2017-Sep-14 14:56N 29°41' W 094°59'0 0.0
2017-Sep-14 14:27N 29°41' W 094°59'0 0.1
2017-Sep-14 14:00N 29°41' W 094°59'8 0.4
2017-Sep-13 15:54N 29°46' W 095°06'4 3.0
2017-Sep-13 14:40N 29°45' W 095°10'4 0.5
2017-Sep-13 06:33N 29°47' W 095°06'0 0.0
2017-Sep-13 06:29N 29°47' W 095°06'0 0.1
2017-Sep-13 02:29N 29°47' W 095°06'1 2.8
2017-Sep-13 02:00N 29°46' W 095°05'3 6.7
2017-Sep-13 01:30N 29°44' W 095°02'3 6.6
2017-Sep-13 01:00N 29°41' W 094°59'4 7.2
2017-Sep-13 00:30N 29°38' W 094°58'4 7.7
2017-Sep-13 00:00N 29°35' W 094°56'7 0.4
2017-Sep-12 07:47N 29°29' W 094°52'2 7.9
2017-Sep-12 07:30N 29°31' W 094°53'4 7.7
2017-Sep-12 07:00N 29°34' W 094°55'4 7.8
2017-Sep-12 06:30N 29°38' W 094°58'4 7.7
2017-Sep-12 06:00N 29°41' W 094°59'7 5.8
2017-Sep-12 04:44N 29°47' W 095°04'1 1.9
2017-Sep-12 04:28N 29°47' W 095°05'  

Dump ship's entire track history